createdAt,value
2023-01-19T00:00:49.595Z,98252.28
2023-01-19T00:03:17.972Z,98248.63
2023-01-19T00:05:45.636Z,98250.78
2023-01-19T00:08:16.019Z,98250.59
2023-01-19T00:10:45.898Z,98242.59
2023-01-19T00:13:14.399Z,98248.78
2023-01-19T00:15:41.991Z,98255.59
2023-01-19T00:18:10.939Z,98258.69
2023-01-19T00:20:39.586Z,98249.44
2023-01-19T00:23:08.251Z,98247.28
2023-01-19T00:25:42.279Z,98253.28
2023-01-19T00:28:14.302Z,98247.00
2023-01-19T00:30:43.561Z,98245.56
2023-01-19T00:33:13.767Z,98238.41
2023-01-19T00:35:44.506Z,98240.78
2023-01-19T00:38:12.624Z,98240.59
2023-01-19T00:40:40.066Z,98242.22
2023-01-19T00:43:07.463Z,98237.56
2023-01-19T00:45:35.278Z,98237.62
2023-01-19T00:48:02.861Z,98232.50
2023-01-19T00:50:31.648Z,98235.84
2023-01-19T00:53:01.496Z,98235.66
2023-01-19T00:55:30.406Z,98228.59
2023-01-19T00:57:58.258Z,98234.22
2023-01-19T01:00:26.529Z,98244.66
2023-01-19T01:02:54.194Z,98236.22
2023-01-19T01:05:22.420Z,98242.25
2023-01-19T01:07:50.747Z,98234.97
2023-01-19T01:10:24.205Z,98234.22
2023-01-19T01:12:54.884Z,98239.22
2023-01-19T01:15:27.056Z,98236.03
2023-01-19T01:17:55.351Z,98239.56
2023-01-19T01:20:27.889Z,98246.56
2023-01-19T01:22:56.468Z,98246.94
2023-01-19T01:25:25.351Z,98251.28
2023-01-19T01:27:53.513Z,98248.59
2023-01-19T01:30:21.647Z,98245.91
2023-01-19T01:32:49.583Z,98251.25
2023-01-19T01:35:17.367Z,98247.66
2023-01-19T01:37:45.083Z,98251.81
2023-01-19T01:40:18.376Z,98253.38
2023-01-19T01:42:46.325Z,98258.69
2023-01-19T01:45:29.731Z,98261.56
2023-01-19T01:48:04.567Z,98270.34
2023-01-19T01:50:34.329Z,98264.91
2023-01-19T01:53:10.040Z,98273.59
2023-01-19T01:55:41.345Z,98277.31
2023-01-19T01:58:10.641Z,98293.47
2023-01-19T02:00:58.015Z,98294.31
2023-01-19T02:03:26.995Z,98285.72
2023-01-19T02:05:57.706Z,98295.91
2023-01-19T02:08:48.696Z,98302.84
2023-01-19T02:11:35.152Z,98304.72
2023-01-19T02:14:05.323Z,98295.06
2023-01-19T02:16:34.133Z,98264.34
2023-01-19T02:19:01.545Z,98240.87
2023-01-19T02:21:37.990Z,98225.69
2023-01-19T02:24:07.525Z,98234.91
2023-01-19T02:26:43.330Z,98249.47
2023-01-19T02:29:17.582Z,98269.22
2023-01-19T02:31:45.498Z,98289.47
2023-01-19T02:34:16.114Z,98300.75
2023-01-19T02:37:07.514Z,98284.59
2023-01-19T02:39:45.954Z,98277.84
2023-01-19T02:42:23.615Z,98259.28
2023-01-19T02:44:53.802Z,98263.94
2023-01-19T02:47:21.238Z,98257.78
2023-01-19T02:49:58.870Z,98248.28
2023-01-19T02:52:27.326Z,98242.03
2023-01-19T02:55:07.012Z,98259.91
2023-01-19T02:57:56.540Z,98265.88
2023-01-19T03:00:46.023Z,98275.88
2023-01-19T03:03:28.155Z,98272.78
2023-01-19T03:06:23.578Z,98280.94
2023-01-19T03:08:56.305Z,98273.94
2023-01-19T03:11:25.461Z,98270.69
2023-01-19T03:13:56.644Z,98284.78
2023-01-19T03:16:30.625Z,98297.03
2023-01-19T03:19:07.002Z,98315.44
2023-01-19T03:21:36.320Z,98324.97
2023-01-19T03:24:06.750Z,98322.44
2023-01-19T03:26:38.893Z,98317.59
2023-01-19T03:29:07.408Z,98278.78
2023-01-19T03:31:35.101Z,98261.06
2023-01-19T03:34:06.865Z,98242.00
2023-01-19T03:36:46.711Z,98243.16
2023-01-19T03:39:18.163Z,98241.59
2023-01-19T03:41:48.919Z,98242.47
2023-01-19T03:44:16.946Z,98233.16
2023-01-19T03:46:45.980Z,98220.88
2023-01-19T03:49:13.867Z,98217.81
2023-01-19T03:51:41.536Z,98222.94
2023-01-19T03:54:10.597Z,98229.00
2023-01-19T03:56:38.392Z,98218.22
2023-01-19T03:59:06.124Z,98232.84
2023-01-19T04:01:33.720Z,98259.09
2023-01-19T04:04:01.473Z,98266.72
2023-01-19T04:06:29.070Z,98302.66
2023-01-19T04:08:56.501Z,98300.63
2023-01-19T04:11:24.155Z,98288.25
2023-01-19T04:13:51.723Z,98290.59
2023-01-19T04:16:21.205Z,98300.78
2023-01-19T04:18:49.855Z,98301.09
2023-01-19T04:21:17.227Z,98304.09
2023-01-19T04:23:46.017Z,98304.69
2023-01-19T04:26:13.828Z,98284.22
2023-01-19T04:28:42.592Z,98279.50
2023-01-19T04:31:10.623Z,98259.19
2023-01-19T04:33:38.392Z,98263.09
2023-01-19T04:36:06.140Z,98265.72
2023-01-19T04:38:33.634Z,98257.59
2023-01-19T04:41:01.456Z,98251.00
2023-01-19T04:43:29.157Z,98232.41
2023-01-19T04:45:56.940Z,98238.91
2023-01-19T04:48:24.690Z,98246.97
2023-01-19T04:50:52.645Z,98238.81
2023-01-19T04:53:20.056Z,98267.72
2023-01-19T04:55:47.768Z,98282.88
2023-01-19T04:58:15.786Z,98280.47
2023-01-19T05:00:43.591Z,98291.59
2023-01-19T05:03:11.420Z,98287.03
2023-01-19T05:05:38.907Z,98293.87
2023-01-19T05:08:06.299Z,98297.25
2023-01-19T05:10:33.954Z,98278.34
2023-01-19T05:13:01.744Z,98274.62
2023-01-19T05:15:29.738Z,98262.44
2023-01-19T05:17:58.131Z,98268.66
2023-01-19T05:20:25.510Z,98295.09
2023-01-19T05:22:53.555Z,98305.69
2023-01-19T05:25:21.357Z,98314.06
2023-01-19T05:27:48.972Z,98324.25
2023-01-19T05:30:16.881Z,98335.69
2023-01-19T05:32:44.574Z,98342.38
2023-01-19T05:35:13.525Z,98346.31
2023-01-19T05:37:41.039Z,98351.12
2023-01-19T05:40:09.751Z,98343.81
2023-01-19T05:42:37.297Z,98321.03
2023-01-19T05:45:05.536Z,98326.50
2023-01-19T05:47:34.038Z,98321.16
2023-01-19T05:50:01.460Z,98327.75
2023-01-19T05:52:28.890Z,98315.22
2023-01-19T05:54:56.576Z,98323.59
2023-01-19T05:57:24.079Z,98327.34
2023-01-19T05:59:52.463Z,98304.06
2023-01-19T06:02:20.212Z,98296.44
2023-01-19T06:04:47.904Z,98296.88
2023-01-19T06:07:15.343Z,98304.16
2023-01-19T06:09:42.927Z,98315.22
2023-01-19T06:12:10.591Z,98308.13
2023-01-19T06:14:38.184Z,98293.59
2023-01-19T06:17:06.728Z,98280.69
2023-01-19T06:19:35.032Z,98291.56
2023-01-19T06:22:02.840Z,98276.00
2023-01-19T06:24:30.295Z,98263.34
2023-01-19T06:26:57.947Z,98248.66
2023-01-19T06:29:25.591Z,98254.31
2023-01-19T06:31:53.598Z,98259.34
2023-01-19T06:34:21.581Z,98263.22
2023-01-19T06:36:49.018Z,98286.19
2023-01-19T06:39:16.501Z,98304.72
2023-01-19T06:41:44.174Z,98308.19
2023-01-19T06:44:11.584Z,98305.47
2023-01-19T06:46:39.075Z,98321.78
2023-01-19T06:49:06.798Z,98317.88
2023-01-19T06:51:34.259Z,98315.75
2023-01-19T06:54:01.915Z,98313.06
2023-01-19T06:56:29.855Z,98308.87
2023-01-19T06:58:57.296Z,98305.03
2023-01-19T07:01:24.905Z,98298.31
2023-01-19T07:03:53.132Z,98289.66
2023-01-19T07:06:20.808Z,98292.97
2023-01-19T07:08:48.188Z,98293.09
2023-01-19T07:11:24.590Z,98290.56
2023-01-19T07:13:58.246Z,98285.81
2023-01-19T07:16:26.155Z,98292.41
2023-01-19T07:18:53.889Z,98306.44
2023-01-19T07:21:22.068Z,98302.28
2023-01-19T07:23:51.303Z,98318.25
2023-01-19T07:26:21.293Z,98322.03
2023-01-19T07:28:49.001Z,98323.50
2023-01-19T07:31:17.978Z,98347.91
2023-01-19T07:33:45.923Z,98341.75
2023-01-19T07:36:13.701Z,98342.50
2023-01-19T07:38:41.591Z,98345.94
2023-01-19T07:41:09.980Z,98344.72
2023-01-19T07:43:37.642Z,98339.37
2023-01-19T07:46:06.437Z,98344.56
2023-01-19T07:48:34.472Z,98341.25
2023-01-19T07:51:10.446Z,98353.09
2023-01-19T07:53:40.084Z,98352.69
2023-01-19T07:56:07.913Z,98359.69
2023-01-19T07:58:35.327Z,98351.25
2023-01-19T08:01:11.450Z,98374.47
2023-01-19T08:03:39.748Z,98355.81
2023-01-19T08:06:07.747Z,98372.59
2023-01-19T08:08:35.285Z,98362.19
2023-01-19T08:11:03.227Z,98359.12
2023-01-19T08:13:30.844Z,98347.78
2023-01-19T08:15:58.319Z,98338.75
2023-01-19T08:18:26.033Z,98334.94
2023-01-19T08:20:53.453Z,98338.59
2023-01-19T08:23:21.067Z,98328.94
2023-01-19T08:25:49.081Z,98343.12
2023-01-19T08:28:17.268Z,98331.19
2023-01-19T08:30:45.212Z,98342.91
2023-01-19T08:33:13.803Z,98321.34
2023-01-19T08:35:43.164Z,98336.03
2023-01-19T08:38:10.880Z,98347.69
2023-01-19T08:40:39.800Z,98352.53
2023-01-19T08:43:09.809Z,98363.84
2023-01-19T08:45:38.327Z,98365.47
2023-01-19T08:48:06.474Z,98364.19
2023-01-19T08:50:34.698Z,98358.72
2023-01-19T08:53:04.565Z,98363.97
2023-01-19T08:55:34.048Z,98366.94
2023-01-19T08:58:04.197Z,98356.34
2023-01-19T09:00:34.313Z,98357.78
2023-01-19T09:03:03.680Z,98363.88
2023-01-19T09:05:35.872Z,98357.56
2023-01-19T09:08:10.649Z,98355.75
2023-01-19T09:10:39.194Z,98364.63
2023-01-19T09:13:09.772Z,98360.22
2023-01-19T09:15:38.547Z,98374.19
2023-01-19T09:18:13.643Z,98384.66
2023-01-19T09:20:42.814Z,98389.28
2023-01-19T09:23:11.423Z,98389.94
2023-01-19T09:25:40.124Z,98376.13
2023-01-19T09:28:09.475Z,98373.25
2023-01-19T09:30:38.673Z,98367.28
2023-01-19T09:33:07.569Z,98360.03
2023-01-19T09:35:35.277Z,98370.06
2023-01-19T09:38:03.444Z,98379.47
2023-01-19T09:40:31.833Z,98373.84
2023-01-19T09:43:14.506Z,98364.25
2023-01-19T09:45:52.104Z,98368.88
2023-01-19T09:48:28.191Z,98368.41
2023-01-19T09:50:57.526Z,98362.66
2023-01-19T09:53:45.505Z,98370.91
2023-01-19T09:56:15.679Z,98371.81
2023-01-19T09:58:43.159Z,98385.44
2023-01-19T10:01:35.115Z,98387.91
2023-01-19T10:04:19.174Z,98380.38
2023-01-19T10:06:48.561Z,98391.44
2023-01-19T10:09:27.254Z,98397.62
2023-01-19T10:12:01.138Z,98392.53
2023-01-19T10:14:52.876Z,98392.94
2023-01-19T10:17:39.102Z,98387.63
2023-01-19T10:20:14.923Z,98383.56
2023-01-19T10:22:49.911Z,98384.91
2023-01-19T10:25:20.868Z,98385.44
2023-01-19T10:27:48.424Z,98387.66
2023-01-19T10:30:24.238Z,98398.16
2023-01-19T10:32:52.226Z,98397.62
2023-01-19T10:35:24.328Z,98389.75
2023-01-19T10:38:02.205Z,98393.09
2023-01-19T10:41:06.208Z,98395.25
2023-01-19T10:43:33.834Z,98408.84
2023-01-19T10:46:05.919Z,98409.06
2023-01-19T10:48:39.270Z,98415.69
2023-01-19T10:51:06.787Z,98408.34
2023-01-19T10:53:34.709Z,98407.81
2023-01-19T10:56:17.338Z,98413.88
2023-01-19T10:58:45.166Z,98420.19
2023-01-19T11:01:26.620Z,98413.16
2023-01-19T11:03:57.079Z,98426.84
2023-01-19T11:06:27.864Z,98427.25
2023-01-19T11:09:20.603Z,98412.66
2023-01-19T11:11:50.697Z,98415.03
2023-01-19T11:14:21.112Z,98406.59
2023-01-19T11:16:53.508Z,98411.88
2023-01-19T11:19:30.293Z,98401.69
2023-01-19T11:22:21.738Z,98408.06
2023-01-19T11:24:49.709Z,98399.09
2023-01-19T11:27:18.195Z,98404.66
2023-01-19T11:29:48.888Z,98407.78
2023-01-19T11:32:22.504Z,98409.50
2023-01-19T11:34:50.496Z,98420.31
2023-01-19T11:37:18.152Z,98419.88
2023-01-19T11:39:47.960Z,98411.97
2023-01-19T11:42:15.776Z,98414.31
2023-01-19T11:44:48.671Z,98417.69
2023-01-19T11:47:28.354Z,98417.72
2023-01-19T11:49:56.029Z,98416.09
2023-01-19T11:52:53.450Z,98419.41
2023-01-19T11:55:49.063Z,98418.09
2023-01-19T11:58:17.912Z,98427.41
2023-01-19T12:01:07.925Z,98423.87
2023-01-19T12:03:47.579Z,98426.41
2023-01-19T12:06:26.055Z,98429.47
2023-01-19T12:09:00.960Z,98439.50
2023-01-19T12:11:34.777Z,98444.09
2023-01-19T12:14:02.805Z,98443.72
2023-01-19T12:16:33.045Z,98440.16
2023-01-19T12:19:04.366Z,98449.91
2023-01-19T12:21:32.469Z,98454.16
2023-01-19T12:24:08.168Z,98464.78
2023-01-19T12:26:38.521Z,98465.53
2023-01-19T12:29:11.293Z,98469.91
2023-01-19T12:31:42.936Z,98472.50
2023-01-19T12:34:27.196Z,98481.28
2023-01-19T12:36:59.496Z,98482.50
2023-01-19T12:39:27.175Z,98484.41
2023-01-19T12:42:24.263Z,98487.88
2023-01-19T12:45:05.560Z,98492.28
2023-01-19T12:47:33.747Z,98494.56
2023-01-19T12:50:07.096Z,98497.03
2023-01-19T12:52:47.939Z,98490.56
2023-01-19T12:55:15.381Z,98505.75
2023-01-19T12:57:58.649Z,98501.34
2023-01-19T13:00:26.187Z,98496.06
2023-01-19T13:03:03.878Z,98507.09
2023-01-19T13:05:33.215Z,98510.09
2023-01-19T13:08:10.231Z,98526.31
2023-01-19T13:10:56.480Z,98548.62
2023-01-19T13:13:25.654Z,98541.28
2023-01-19T13:15:55.734Z,98532.66
2023-01-19T13:18:28.563Z,98543.22
2023-01-19T13:20:55.992Z,98537.97
2023-01-19T13:23:26.343Z,98550.41
2023-01-19T13:26:00.153Z,98561.50
2023-01-19T13:28:46.970Z,98566.13
2023-01-19T13:31:14.958Z,98572.12
2023-01-19T13:33:56.588Z,98566.88
2023-01-19T13:36:35.574Z,98577.59
2023-01-19T13:39:06.850Z,98582.66
2023-01-19T13:41:39.374Z,98594.69
2023-01-19T13:44:17.038Z,98597.50
2023-01-19T13:46:46.077Z,98598.41
2023-01-19T13:49:21.044Z,98602.12
2023-01-19T13:52:19.603Z,98604.91
2023-01-19T13:54:48.585Z,98626.16
2023-01-19T13:57:27.912Z,98626.28
2023-01-19T14:00:17.075Z,98625.06
2023-01-19T14:03:00.880Z,98622.00
2023-01-19T14:05:28.284Z,98620.00
2023-01-19T14:08:13.891Z,98608.22
2023-01-19T14:10:45.814Z,98611.16
2023-01-19T14:13:18.224Z,98613.34
2023-01-19T14:15:47.675Z,98627.28
2023-01-19T14:18:18.681Z,98621.56
2023-01-19T14:20:56.314Z,98606.09
2023-01-19T14:23:48.677Z,98622.75
2023-01-19T14:26:38.253Z,98623.34
2023-01-19T14:29:24.988Z,98632.84
2023-01-19T14:32:01.651Z,98634.25
2023-01-19T14:34:32.101Z,98637.97
2023-01-19T14:37:00.351Z,98632.06
2023-01-19T14:39:33.635Z,98631.09
2023-01-19T14:42:04.471Z,98630.22
2023-01-19T14:44:35.410Z,98641.84
2023-01-19T14:47:04.657Z,98649.44
2023-01-19T14:49:41.897Z,98648.53
2023-01-19T14:52:26.141Z,98653.81
2023-01-19T14:54:55.221Z,98676.56
2023-01-19T14:57:23.183Z,98680.88
2023-01-19T14:59:50.721Z,98694.38
2023-01-19T15:02:21.360Z,98716.03
2023-01-19T15:04:49.144Z,98718.13
2023-01-19T15:07:19.219Z,98721.28
2023-01-19T15:09:47.412Z,98707.75
2023-01-19T15:12:17.463Z,98688.91
2023-01-19T15:14:45.853Z,98682.72
2023-01-19T15:17:18.288Z,98688.34
2023-01-19T15:19:46.102Z,98688.25
2023-01-19T15:22:13.769Z,98677.03
2023-01-19T15:24:41.194Z,98696.09
2023-01-19T15:27:12.372Z,98702.91
2023-01-19T15:29:42.693Z,98699.06
2023-01-19T15:32:14.755Z,98707.38
2023-01-19T15:34:42.271Z,98708.97
2023-01-19T15:37:10.250Z,98722.63
2023-01-19T15:39:37.880Z,98724.19
2023-01-19T15:42:10.703Z,98720.87
2023-01-19T15:44:39.193Z,98709.75
2023-01-19T15:47:06.760Z,98720.59
2023-01-19T15:49:34.205Z,98727.63
2023-01-19T15:52:01.878Z,98731.78
2023-01-19T15:54:29.354Z,98743.63
2023-01-19T15:56:56.883Z,98753.97
2023-01-19T15:59:24.559Z,98751.63
2023-01-19T16:01:53.042Z,98758.56
2023-01-19T16:04:20.873Z,98752.97
2023-01-19T16:06:50.059Z,98759.72
2023-01-19T16:09:20.127Z,98765.81
2023-01-19T16:11:48.254Z,98778.62
2023-01-19T16:14:17.467Z,98770.16
2023-01-19T16:16:46.211Z,98785.78
2023-01-19T16:19:15.826Z,98799.69
2023-01-19T16:21:44.232Z,98807.59
2023-01-19T16:24:11.728Z,98809.84
2023-01-19T16:26:39.464Z,98809.00
2023-01-19T16:29:09.850Z,98821.47
2023-01-19T16:31:39.004Z,98835.87
2023-01-19T16:34:07.432Z,98842.00
2023-01-19T16:36:36.664Z,98851.84
2023-01-19T16:39:10.540Z,98863.28
2023-01-19T16:41:38.567Z,98857.75
2023-01-19T16:44:06.882Z,98864.97
2023-01-19T16:46:37.239Z,98852.31
2023-01-19T16:49:09.733Z,98860.03
2023-01-19T16:51:37.653Z,98881.44
2023-01-19T16:54:06.196Z,98886.56
2023-01-19T16:56:33.959Z,98888.75
2023-01-19T16:59:01.595Z,98883.91
2023-01-19T17:01:30.102Z,98888.78
2023-01-19T17:03:58.342Z,98898.41
2023-01-19T17:06:26.359Z,98898.03
2023-01-19T17:08:54.575Z,98896.44
2023-01-19T17:11:29.166Z,98905.19
2023-01-19T17:14:02.656Z,98902.50
2023-01-19T17:16:32.425Z,98912.09
2023-01-19T17:19:02.733Z,98921.53
2023-01-19T17:21:33.012Z,98923.91
2023-01-19T17:24:02.291Z,98923.44
2023-01-19T17:26:31.566Z,98921.44
2023-01-19T17:29:02.179Z,98926.22
2023-01-19T17:31:35.347Z,98922.28
2023-01-19T17:34:04.161Z,98920.66
2023-01-19T17:36:35.155Z,98918.69
2023-01-19T17:39:07.225Z,98924.09
2023-01-19T17:41:36.646Z,98921.19
2023-01-19T17:44:06.158Z,98922.72
2023-01-19T17:46:38.559Z,98922.41
2023-01-19T17:49:08.697Z,98929.59
2023-01-19T17:51:37.379Z,98942.09
2023-01-19T17:54:06.013Z,98937.41
2023-01-19T17:56:38.897Z,98943.25
2023-01-19T17:59:08.424Z,98951.47
2023-01-19T18:01:41.456Z,98954.66
2023-01-19T18:04:11.011Z,98962.03
2023-01-19T18:06:40.856Z,98967.72
2023-01-19T18:09:10.357Z,98971.78
2023-01-19T18:11:39.314Z,98969.66
2023-01-19T18:14:07.422Z,98973.66
2023-01-19T18:16:36.709Z,98973.88
2023-01-19T18:19:05.397Z,98982.09
2023-01-19T18:21:34.706Z,98976.94
2023-01-19T18:24:07.330Z,98979.63
2023-01-19T18:26:38.181Z,98979.53
2023-01-19T18:31:49.599Z,98982.88
2023-01-19T18:34:19.073Z,98995.16
2023-01-19T18:36:47.493Z,98987.56
2023-01-19T18:39:15.964Z,98992.66
2023-01-19T18:41:47.117Z,98994.09
2023-01-19T18:44:15.528Z,98995.03
2023-01-19T18:46:45.515Z,98982.19
2023-01-19T18:49:14.602Z,98978.22
2023-01-19T18:51:43.212Z,98981.91
2023-01-19T18:54:12.380Z,98986.97
2023-01-19T18:56:42.571Z,98989.91
2023-01-19T18:59:12.521Z,98996.06
2023-01-19T19:01:41.424Z,98995.47
2023-01-19T19:04:12.845Z,99002.03
2023-01-19T19:06:42.029Z,99000.66
2023-01-19T19:09:13.883Z,98999.59
2023-01-19T19:11:43.813Z,99000.50
2023-01-19T19:14:12.487Z,99004.28
2023-01-19T19:16:41.535Z,99000.22
2023-01-19T19:19:13.127Z,99005.75
2023-01-19T19:21:43.262Z,99012.13
2023-01-19T19:24:13.957Z,99019.06
2023-01-19T19:26:45.536Z,99026.37
2023-01-19T19:29:15.019Z,99029.81
2023-01-19T19:31:44.538Z,99043.63
2023-01-19T19:34:13.257Z,99040.44
2023-01-19T19:36:51.770Z,99039.13
2023-01-19T19:39:20.537Z,99041.88
2023-01-19T19:41:50.166Z,99066.28
2023-01-19T19:44:19.033Z,99054.41
2023-01-19T19:46:47.491Z,99063.56
2023-01-19T19:49:21.860Z,99069.94
2023-01-19T19:51:49.809Z,99067.81
2023-01-19T19:54:20.140Z,99071.34
2023-01-19T19:56:52.452Z,99075.72
2023-01-19T19:59:21.658Z,99065.34
2023-01-19T20:01:51.174Z,99062.19
2023-01-19T20:04:21.816Z,99065.44
2023-01-19T20:06:50.947Z,99066.25
2023-01-19T20:09:23.911Z,99069.78
2023-01-19T20:11:53.488Z,99070.22
2023-01-19T20:14:25.548Z,99054.41
2023-01-19T20:16:54.819Z,99058.66
2023-01-19T20:19:23.597Z,99068.41
2023-01-19T20:21:53.496Z,99069.41
2023-01-19T20:24:22.563Z,99071.69
2023-01-19T20:26:56.857Z,99082.88
2023-01-19T20:29:25.946Z,99083.50
2023-01-19T20:31:56.824Z,99061.84
2023-01-19T20:34:29.519Z,99064.56
2023-01-19T20:36:59.798Z,99066.22
2023-01-19T20:39:33.717Z,99056.16
2023-01-19T20:42:03.164Z,99057.59
2023-01-19T20:44:32.173Z,99045.75
2023-01-19T20:47:00.512Z,99072.09
2023-01-19T20:49:30.728Z,99068.66
2023-01-19T20:51:59.800Z,99054.63
2023-01-19T20:54:30.238Z,99065.16
2023-01-19T20:57:01.549Z,99056.81
2023-01-19T20:59:31.836Z,99054.81
2023-01-19T21:02:02.384Z,99058.63
2023-01-19T21:04:31.712Z,99062.09
2023-01-19T21:07:00.407Z,99073.72
2023-01-19T21:09:28.661Z,99076.88
2023-01-19T21:11:57.642Z,99065.75
2023-01-19T21:14:26.834Z,99070.59
2023-01-19T21:16:58.322Z,99071.22
2023-01-19T21:19:29.872Z,99071.94
2023-01-19T21:21:57.823Z,99069.94
2023-01-19T21:24:27.991Z,99076.56
2023-01-19T21:26:56.553Z,99070.09
2023-01-19T21:29:24.891Z,99078.19
2023-01-19T21:31:53.247Z,99084.22
2023-01-19T21:34:20.801Z,99081.81
2023-01-19T21:36:48.485Z,99095.25
2023-01-19T21:39:17.414Z,99106.00
2023-01-19T21:41:45.745Z,99117.44
2023-01-19T21:44:13.922Z,99114.78
2023-01-19T21:46:41.877Z,99121.34
2023-01-19T21:49:15.741Z,99119.41
2023-01-19T21:51:43.572Z,99126.69
2023-01-19T21:54:11.043Z,99151.22
2023-01-19T21:56:38.780Z,99181.31
2023-01-19T21:59:06.605Z,99209.59
2023-01-19T22:01:34.513Z,99228.12
2023-01-19T22:04:02.254Z,99225.41
2023-01-19T22:06:29.663Z,99210.34
2023-01-19T22:08:58.391Z,99196.75
2023-01-19T22:11:27.426Z,99170.28
2023-01-19T22:13:54.956Z,99169.03
2023-01-19T22:16:22.998Z,99162.16
2023-01-19T22:18:57.576Z,99158.69
2023-01-19T22:21:29.803Z,99169.97
2023-01-19T22:23:59.295Z,99168.69
2023-01-19T22:26:30.756Z,99171.56
2023-01-19T22:29:00.343Z,99177.09
2023-01-19T22:31:29.491Z,99162.06
2023-01-19T22:33:57.334Z,99160.31
2023-01-19T22:36:34.044Z,99159.56
2023-01-19T22:39:05.193Z,99162.72
2023-01-19T22:41:33.907Z,99167.72
2023-01-19T22:44:03.710Z,99171.06
2023-01-19T22:46:33.320Z,99165.81
2023-01-19T22:49:01.036Z,99163.25
2023-01-19T22:51:29.939Z,99148.81
2023-01-19T22:53:57.654Z,99139.91
2023-01-19T22:56:27.294Z,99137.16
2023-01-19T22:58:55.139Z,99148.75
2023-01-19T23:01:37.206Z,99155.19
2023-01-19T23:04:05.944Z,99145.72
2023-01-19T23:06:35.097Z,99151.75
2023-01-19T23:09:05.778Z,99135.44
2023-01-19T23:11:36.309Z,99135.88
2023-01-19T23:14:04.747Z,99138.63
2023-01-19T23:16:32.144Z,99123.19
2023-01-19T23:19:00.184Z,99117.72
2023-01-19T23:21:29.627Z,99112.59
2023-01-19T23:23:59.323Z,99114.50
2023-01-19T23:26:28.100Z,99113.06
2023-01-19T23:28:57.660Z,99114.31
2023-01-19T23:31:27.505Z,99100.81
2023-01-19T23:33:57.671Z,99098.06
2023-01-19T23:36:26.953Z,99097.03
2023-01-19T23:38:57.146Z,99116.03
2023-01-19T23:41:25.663Z,99134.84
2023-01-19T23:43:53.065Z,99140.88
2023-01-19T23:46:21.424Z,99141.22
2023-01-19T23:48:49.029Z,99139.31
2023-01-19T23:51:24.808Z,99152.12
2023-01-19T23:53:52.824Z,99151.84
2023-01-19T23:56:28.960Z,99164.75
2023-01-19T23:59:02.201Z,99157.97
